createdAt,value
2023-02-20T14:30:08.647Z,9.02
2023-02-20T14:32:36.995Z,8.95
2023-02-20T14:35:24.369Z,8.91
2023-02-20T14:37:52.441Z,8.84
2023-02-20T14:40:32.798Z,8.78
2023-02-20T14:43:02.023Z,8.69
2023-02-20T14:45:30.583Z,8.63
2023-02-20T14:47:59.582Z,8.58
2023-02-20T14:50:30.410Z,8.54
2023-02-20T14:53:18.455Z,8.50
2023-02-20T14:55:49.419Z,8.47
2023-02-20T14:58:19.223Z,8.44
2023-02-20T15:00:51.166Z,8.41
2023-02-20T15:03:30.735Z,8.37
2023-02-20T15:06:04.237Z,8.31
2023-02-20T15:08:38.020Z,8.25
2023-02-20T15:11:08.437Z,8.18
2023-02-20T15:13:38.664Z,8.11
2023-02-20T15:16:12.971Z,8.06
2023-02-20T15:18:43.098Z,8.00
2023-02-20T15:21:14.349Z,7.95
2023-02-20T15:23:44.157Z,7.90
2023-02-20T15:26:31.185Z,7.84
2023-02-20T15:29:11.228Z,7.79
2023-02-20T15:31:39.296Z,7.73
2023-02-20T15:34:17.920Z,7.69
2023-02-20T15:36:45.992Z,7.63
2023-02-20T15:39:14.168Z,7.58
2023-02-20T15:41:42.650Z,7.54
2023-02-20T15:44:13.279Z,7.49
2023-02-20T15:46:41.461Z,7.45
2023-02-20T15:49:19.298Z,7.40
2023-02-20T15:51:52.473Z,7.34
2023-02-20T15:54:22.611Z,7.29
2023-02-20T15:56:51.705Z,7.25
2023-02-20T15:59:19.939Z,7.20
2023-02-20T16:01:48.870Z,7.17
2023-02-20T16:04:17.318Z,7.13
2023-02-20T16:06:45.694Z,7.09
2023-02-20T16:09:13.868Z,7.04
2023-02-20T16:11:44.094Z,6.98
2023-02-20T16:14:15.543Z,6.92
2023-02-20T16:16:45.382Z,6.88
2023-02-20T16:19:18.958Z,6.82
2023-02-20T16:21:58.822Z,6.76
2023-02-20T16:24:27.536Z,6.70
2023-02-20T16:26:55.780Z,6.65
2023-02-20T16:29:31.223Z,6.60
2023-02-20T16:31:59.303Z,6.53
2023-02-20T16:34:28.686Z,6.50
2023-02-20T16:36:56.664Z,6.47
2023-02-20T16:39:27.217Z,6.43
2023-02-20T16:41:58.214Z,6.39
2023-02-20T16:44:38.378Z,6.33
2023-02-20T16:47:10.172Z,6.27
2023-02-20T16:49:39.646Z,6.24
2023-02-20T16:52:22.060Z,6.21
2023-02-20T16:54:50.531Z,6.18
2023-02-20T16:57:19.120Z,6.15
2023-02-20T16:59:47.302Z,6.15
2023-02-20T17:02:17.410Z,6.14
2023-02-20T17:04:45.832Z,6.13
2023-02-20T17:07:14.273Z,6.13
2023-02-20T17:09:45.914Z,6.12
2023-02-20T17:12:16.471Z,6.11
2023-02-20T17:14:45.353Z,6.12
2023-02-20T17:17:14.194Z,6.15
2023-02-20T17:19:42.928Z,6.24
2023-02-20T17:22:11.719Z,6.31
2023-02-20T17:24:41.568Z,6.39
2023-02-20T17:27:11.584Z,6.45
2023-02-20T17:29:42.080Z,6.51
2023-02-20T17:32:10.243Z,6.57
2023-02-20T17:34:38.734Z,6.62
2023-02-20T17:37:07.733Z,6.66
2023-02-20T17:39:36.085Z,6.71
2023-02-20T17:42:04.390Z,6.75
2023-02-20T17:44:32.468Z,6.77
2023-02-20T17:47:01.560Z,6.77
2023-02-20T17:49:29.830Z,6.77
2023-02-20T17:52:01.382Z,6.77
2023-02-20T17:54:32.017Z,6.78
2023-02-20T17:57:00.462Z,6.81
2023-02-20T17:59:28.672Z,6.83
2023-02-20T18:01:56.876Z,6.86
2023-02-20T18:04:25.961Z,6.89
2023-02-20T18:06:54.734Z,6.91
2023-02-20T18:09:22.898Z,6.93
2023-02-20T18:11:52.101Z,6.96
2023-02-20T18:14:20.782Z,6.96
2023-02-20T18:16:48.912Z,6.96
2023-02-20T18:19:18.055Z,6.96
2023-02-20T18:21:50.019Z,6.94
2023-02-20T18:24:24.175Z,6.94
2023-02-20T18:26:53.341Z,6.94
2023-02-20T18:29:21.645Z,6.94
2023-02-20T18:31:49.790Z,6.93
2023-02-20T18:34:18.441Z,6.93
2023-02-20T18:36:46.439Z,6.93
2023-02-20T18:39:15.057Z,6.93
2023-02-20T18:41:49.009Z,6.94
2023-02-20T18:44:17.219Z,6.95
2023-02-20T18:46:45.730Z,6.96
2023-02-20T18:49:14.165Z,6.96
2023-02-20T18:51:43.056Z,6.98
2023-02-20T18:54:32.999Z,6.98
2023-02-20T18:57:02.986Z,6.98
2023-02-20T18:59:31.532Z,6.98
2023-02-20T19:01:59.691Z,6.99
2023-02-20T19:04:27.891Z,7.00
2023-02-20T19:06:56.240Z,7.02
2023-02-20T19:09:25.090Z,7.05
2023-02-20T19:11:54.667Z,7.06
2023-02-20T19:14:25.038Z,7.05
2023-02-20T19:16:55.483Z,7.07
2023-02-20T19:19:25.543Z,7.11
2023-02-20T19:21:54.635Z,7.17
2023-02-20T19:24:23.439Z,7.23
2023-02-20T19:26:51.800Z,7.32
2023-02-20T19:29:20.502Z,7.40
2023-02-20T19:31:48.737Z,7.46
2023-02-20T19:34:17.052Z,7.53
2023-02-20T19:36:45.427Z,7.60
2023-02-20T19:39:14.110Z,7.66
2023-02-20T19:41:42.126Z,7.70
2023-02-20T19:44:14.658Z,7.71
2023-02-20T19:46:43.242Z,7.73
2023-02-20T19:49:13.021Z,7.76
2023-02-20T19:51:46.350Z,7.78
2023-02-20T19:54:15.340Z,7.77
2023-02-20T19:56:54.881Z,7.74
2023-02-20T19:59:23.373Z,7.73
2023-02-20T20:01:52.578Z,7.71
2023-02-20T20:04:21.666Z,7.68
2023-02-20T20:06:50.452Z,7.67
2023-02-20T20:09:33.790Z,7.66
2023-02-20T20:12:05.741Z,7.64
2023-02-20T20:14:33.709Z,7.59
2023-02-20T20:17:04.037Z,7.54
2023-02-20T20:19:32.621Z,7.48
2023-02-20T20:22:00.613Z,7.43
2023-02-20T20:24:28.963Z,7.37
2023-02-20T20:26:59.225Z,7.33
2023-02-20T20:29:27.707Z,7.29
2023-02-20T20:31:55.951Z,7.24
2023-02-20T20:34:25.453Z,7.19
2023-02-20T20:36:53.543Z,7.14
2023-02-20T20:39:21.696Z,7.07
2023-02-20T20:41:49.699Z,7.01
2023-02-20T20:44:20.405Z,6.94
2023-02-20T20:46:48.685Z,6.87
2023-02-20T20:49:16.791Z,6.83
2023-02-20T20:51:47.378Z,6.80
2023-02-20T20:54:15.862Z,6.77
2023-02-20T20:56:44.958Z,6.74
2023-02-20T20:59:13.238Z,6.70
2023-02-20T21:01:42.982Z,6.66
2023-02-20T21:04:11.875Z,6.60
2023-02-20T21:06:40.019Z,6.53
2023-02-20T21:09:08.385Z,6.48
2023-02-20T21:11:36.351Z,6.43
2023-02-20T21:14:04.653Z,6.38
2023-02-20T21:16:35.672Z,6.35
2023-02-20T21:19:04.023Z,6.33
2023-02-20T21:21:32.600Z,6.29
2023-02-20T21:24:00.818Z,6.25
2023-02-20T21:26:29.042Z,6.19
2023-02-20T21:28:57.085Z,6.15
2023-02-20T21:31:25.073Z,6.11
2023-02-20T21:33:54.570Z,6.06
2023-02-20T21:36:23.526Z,6.02
2023-02-20T21:38:51.600Z,5.98
2023-02-20T21:41:39.543Z,5.93
2023-02-20T21:44:26.655Z,5.89
2023-02-20T21:46:59.852Z,5.85
2023-02-20T21:49:28.639Z,5.83
2023-02-20T21:51:56.813Z,5.83
2023-02-20T21:54:26.368Z,5.83
2023-02-20T21:56:54.708Z,5.85
2023-02-20T21:59:23.078Z,5.85
2023-02-20T22:01:51.435Z,5.85
2023-02-20T22:04:20.139Z,5.84
2023-02-20T22:07:07.468Z,5.83
2023-02-20T22:09:54.132Z,5.80
2023-02-20T22:12:40.778Z,5.78
2023-02-20T22:15:27.897Z,5.75
2023-02-20T22:18:14.710Z,5.73
2023-02-20T22:21:01.729Z,5.72
2023-02-20T22:23:48.239Z,5.73
2023-02-20T22:26:35.906Z,5.76
2023-02-20T22:29:23.109Z,5.78
2023-02-20T22:32:10.687Z,5.82
2023-02-20T22:35:10.616Z,5.84
2023-02-20T22:37:58.286Z,5.88
2023-02-20T22:40:44.966Z,5.90
2023-02-20T22:43:32.096Z,5.92
2023-02-20T22:46:19.277Z,5.96
2023-02-20T22:49:05.923Z,5.99
2023-02-20T22:51:52.740Z,6.02
2023-02-20T22:54:44.790Z,6.05
2023-02-20T22:57:33.218Z,6.06
2023-02-20T23:00:20.234Z,6.06
2023-02-20T23:03:07.047Z,6.03
2023-02-20T23:05:55.254Z,5.98
2023-02-20T23:08:43.037Z,5.94
2023-02-20T23:11:29.839Z,5.90
2023-02-20T23:14:16.649Z,5.86
2023-02-20T23:17:03.663Z,5.83
2023-02-20T23:19:50.157Z,5.80
2023-02-20T23:22:36.980Z,5.78
2023-02-20T23:25:23.795Z,5.76
2023-02-20T23:28:10.621Z,5.73
2023-02-20T23:30:57.413Z,5.71
2023-02-20T23:33:44.325Z,5.67
2023-02-20T23:36:31.132Z,5.62
2023-02-20T23:39:17.940Z,5.55
2023-02-20T23:42:05.677Z,5.49
2023-02-20T23:44:52.279Z,5.43
2023-02-20T23:47:39.197Z,5.37
2023-02-20T23:50:26.656Z,5.32
2023-02-20T23:53:13.240Z,5.27
2023-02-20T23:56:00.036Z,5.24
2023-02-20T23:58:50.229Z,5.25
